Impacts METAR Board
IDs:

KLVJ - Houston/Pearland Rgn, TX, US

Updated at: 0500 UTC 19 Aug 2019
Potential Impact None Slight Moderate High
Time 18/17Z 18/18Z 18/19Z 18/20Z 18/21Z 18/22Z 18/23Z 19/00Z 19/01Z 19/02Z 19/03Z 19/04Z 19/05Z
Temp92 83 86 89 91 92 92 90 88 85 83 83 82
Dewpt76 77 79 79 75 74 75 74 76 77 77 77 77
Altim29.95 29.95 29.95 29.92 29.90 29.90 29.91 29.91 29.91 29.93 29.94 29.95 29.95
VIS10 2 10 10 10 10 10 10 10 10 10 10 10
CIG-- 37 -- 120 60 -- -- -- -- -- -- -- --
CoverSCTOVCSCTBKNBKNFEWCLRCLRCLRCLRCLRCLRCLR
FltCatVFRIFRVFRVFRVFRVFRVFRVFRVFRVFRVFRVFRVFR
WX--+RA----------------------
WDir1902601500200200180170160160170150170
WSpd12 14 3 0 8 9 10 9 6 5 5 3 3
WGst17 20 -- -- -- -- -- -- -- -- -- -- --
Raw hourly METARs
KLVJ 181653Z AUTO 19012G17KT 10SM FEW034 SCT050 SCT085 33/24 A2995 RMK AO2 SLP139 T03330244 $
KLVJ 181800Z AUTO 26014G20KT 2SM +RA FEW029 BKN037 OVC060 28/25 A2995 RMK AO2 WSHFT 1743 LTG DSNT NE RAB1755 P0007 T02830250 $
KLVJ 181853Z AUTO 15003KT 10SM FEW070 SCT085 30/26 A2995 RMK AO2 WSHFT 1743 LTG DSNT NE RAB1755E37 SLP139 P0017 T03000261 $
KLVJ 181953Z AUTO 00000KT 10SM SCT044 BKN120 32/26 A2992 RMK AO2 SLP131 T03170261 $
KLVJ 182053Z AUTO 20008KT 10SM FEW042 BKN060 33/24 A2990 RMK AO2 SLP124 60017 T03280239 58015 $
KLVJ 182153Z AUTO 20009KT 10SM FEW045 33/23 A2990 RMK AO2 SLP123 T03330233 $
KLVJ 182253Z AUTO 18010KT 10SM CLR 33/24 A2991 RMK AO2 SLP126 T03330239 $
KLVJ 182353Z AUTO 17009KT 10SM CLR 32/23 A2991 RMK AO2 SLP126 60017 T03220233 10339 20278 53002 $
KLVJ 190053Z AUTO 16006KT 10SM CLR 31/24 A2991 RMK AO2 SLP128 T03110244 $
KLVJ 190153Z AUTO 16005KT 10SM CLR 29/25 A2993 RMK AO2 SLP133 T02940250 $
KLVJ 190253Z AUTO 17005KT 10SM CLR 28/25 A2994 RMK AO2 SLP136 T02830250 53009 $
KLVJ 190353Z AUTO 15003KT 10SM CLR 28/25 A2995 RMK AO2 SLP140 T02830250 $
KLVJ 190453Z AUTO 17003KT 10SM CLR 28/25 A2995 RMK AO2 SLP140 T02780250 $



Page loaded:  05:56 UTC  |   10:56 PM Pacific  |   11:56 PM Mountain  |   12:56 AM Central  |   01:56 AM Eastern

 

ADVISORIES

FORECASTS

FORECASTS

OBSERVATIONS

USER TOOLS

ABOUT US